マンチェスター の空港の天気 - METARとTAF

マンチェスター空港 ( EGCC / MAN ) - イギリス マンチェスター
飛行場実況気象(Metar)
観測時間07/18 14:20 BST (07/18 13:20 UTC)
風向・風速西 4m/s
視程10km以上
天気現象
なし
気温18℃
湿度64%
気圧1009hPa
METAREGCC 181320Z AUTO 28008KT 250V310 9999 NCD 18/11 Q1009
過去の天気等 Google飛行場航空写真 Wunderground天気予報

過去48時間のMETAR

飛行場予報(TAF)
発表時間: 7/18 11:57 BST (7/18 10:57 UTC)
予報対象時間: 18日13時 BST ~ 19日19時 BST
風向・風速西 6m/s
視程10km以上
少しの雲 雲底高度 760m
全天の4割程度の雲 雲底高度 1220m
18日13時 BST ~ 18日19時 BST に 確率 40% で一時的に
視程7000m
天気現象しゅう雨
18日20時 BST ~ 18日23時 BST に徐々に
風向・風速南 2m/s
19日8時 BST ~ 19日12時 BST に徐々に
風向・風速南南東 7m/s
19日8時 BST ~ 19日12時 BST に一時的に
視程6000m
天気現象弱い雨
19日8時 BST ~ 19日12時 BST に 確率 40% で一時的に
視程4000m
天気現象強い雨
全天の4割程度の雲 雲底高度 210m
全天の8割程度の雲 雲底高度 370m
19日12時 BST ~ 19日14時 BST に 確率 30% で一時的に
視程5000m
天気現象弱い雨霧雨
全天の8割程度の雲 雲底高度 430m
19日14時 BST ~ 19日17時 BST に徐々に
風向・風速南西 6m/s
19日15時 BST ~ 19日19時 BST に 確率 30% で一時的に
風向・風速南西 8m/s 瞬間風速 13m/s
視程6000m
天気現象しゅう雨
TAF EGCC 181057Z 1812/1918 26011KT 9999 FEW025 SCT040
PROB40 TEMPO 1812/1818 7000 SHRA
BECMG 1819/1822 18004KT
BECMG 1907/1911 15014KT
TEMPO 1907/1911 6000 -RA
PROB40 TEMPO 1907/1911 4000 +RA SCT007 BKN012
PROB30 TEMPO 1911/1913 5000 -RADZ BKN014
BECMG 1913/1916 22012KT
PROB30 TEMPO 1914/1918 23015G25KT 6000 SHRA